createdAt,value
2022-09-21T00:01:27.859Z,100462.91
2022-09-21T00:04:00.984Z,100461.88
2022-09-21T00:06:30.399Z,100453.06
2022-09-21T00:08:58.276Z,100456.50
2022-09-21T00:11:30.799Z,100454.78
2022-09-21T00:14:04.620Z,100457.19
2022-09-21T00:16:32.283Z,100456.72
2022-09-21T00:19:00.258Z,100458.31
2022-09-21T00:21:28.319Z,100461.00
2022-09-21T00:23:55.504Z,100458.66
2022-09-21T00:26:26.045Z,100461.59
2022-09-21T00:29:01.905Z,100457.66
2022-09-21T00:31:31.105Z,100457.28
2022-09-21T00:34:00.294Z,100457.97
2022-09-21T00:36:28.507Z,100456.91
2022-09-21T00:38:59.638Z,100458.19
2022-09-21T00:41:29.434Z,100464.53
2022-09-21T00:44:18.259Z,100462.59
2022-09-21T00:46:48.975Z,100464.53
2022-09-21T00:49:16.923Z,100457.34
2022-09-21T00:51:45.120Z,100458.47
2022-09-21T00:54:20.042Z,100461.38
2022-09-21T00:56:47.403Z,100464.66
2022-09-21T00:59:21.427Z,100459.25
2022-09-21T01:01:49.647Z,100461.91
2022-09-21T01:04:19.072Z,100462.78
2022-09-21T01:06:47.914Z,100460.31
2022-09-21T01:09:17.355Z,100461.34
2022-09-21T01:12:23.181Z,100461.41
2022-09-21T01:15:22.220Z,100454.59
2022-09-21T01:18:26.528Z,100465.16
2022-09-21T01:21:33.277Z,100473.75
2022-09-21T01:24:29.764Z,100469.19
2022-09-21T01:27:36.139Z,100475.41
2022-09-21T01:30:23.661Z,100470.69
2022-09-21T01:33:09.621Z,100481.50
2022-09-21T01:36:01.086Z,100483.56
2022-09-21T01:38:35.655Z,100477.47
2022-09-21T01:41:07.163Z,100486.31
2022-09-21T01:43:42.827Z,100478.38
2022-09-21T01:46:17.703Z,100479.22
2022-09-21T01:48:53.143Z,100477.09
2022-09-21T01:51:24.493Z,100482.66
2022-09-21T01:54:05.464Z,100488.59
2022-09-21T01:56:54.863Z,100489.63
2022-09-21T01:59:47.599Z,100494.78
2022-09-21T02:02:42.163Z,100503.63
2022-09-21T02:05:10.777Z,100503.03
2022-09-21T02:07:39.629Z,100493.13
2022-09-21T02:10:13.534Z,100498.72
2022-09-21T02:12:40.698Z,100497.66
2022-09-21T02:15:08.615Z,100494.94
2022-09-21T02:18:03.767Z,100510.75
2022-09-21T02:21:08.650Z,100508.88
2022-09-21T02:24:02.061Z,100507.13
2022-09-21T02:26:49.375Z,100500.34
2022-09-21T02:29:33.513Z,100501.97
2022-09-21T02:32:12.461Z,100503.59
2022-09-21T02:34:53.388Z,100498.88
2022-09-21T02:37:45.925Z,100497.50
2022-09-21T02:40:31.456Z,100500.72
2022-09-21T02:43:12.162Z,100497.06
2022-09-21T02:45:48.124Z,100516.72
2022-09-21T02:48:21.553Z,100496.66
2022-09-21T02:50:53.987Z,100510.72
2022-09-21T02:53:37.049Z,100508.81
2022-09-21T02:56:07.351Z,100509.59
2022-09-21T02:58:57.340Z,100516.72
2022-09-21T03:01:26.482Z,100508.81
2022-09-21T03:03:53.657Z,100517.84
2022-09-21T03:06:20.709Z,100518.22
2022-09-21T03:08:47.695Z,100517.03
2022-09-21T03:11:18.992Z,100516.00
2022-09-21T03:13:46.475Z,100519.06
2022-09-21T03:16:14.047Z,100515.03
2022-09-21T03:18:43.207Z,100517.22
2022-09-21T03:21:12.406Z,100516.84
2022-09-21T03:23:40.387Z,100522.34
2022-09-21T03:26:08.605Z,100529.13
2022-09-21T03:28:35.733Z,100526.63
2022-09-21T03:31:02.940Z,100532.84
2022-09-21T03:33:29.998Z,100533.00
2022-09-21T03:35:56.998Z,100532.25
2022-09-21T03:38:26.976Z,100529.56
2022-09-21T03:40:57.957Z,100533.38
2022-09-21T03:43:25.396Z,100536.03
2022-09-21T03:45:53.213Z,100519.06
2022-09-21T03:48:20.217Z,100530.38
2022-09-21T03:50:47.171Z,100527.81
2022-09-21T03:53:14.213Z,100533.34
2022-09-21T03:55:41.869Z,100534.91
2022-09-21T03:58:09.100Z,100530.38
2022-09-21T04:00:39.202Z,100535.84
2022-09-21T04:03:06.259Z,100532.25
2022-09-21T04:05:33.186Z,100537.69
2022-09-21T04:08:02.079Z,100542.06
2022-09-21T04:10:32.876Z,100544.88
2022-09-21T04:13:02.123Z,100551.16
2022-09-21T04:15:30.081Z,100551.88
2022-09-21T04:17:58.018Z,100545.88
2022-09-21T04:20:24.979Z,100549.28
2022-09-21T04:22:52.598Z,100554.78
2022-09-21T04:25:19.881Z,100554.63
2022-09-21T04:27:46.888Z,100550.19
2022-09-21T04:30:16.139Z,100553.78
2022-09-21T04:32:43.468Z,100560.22
2022-09-21T04:35:10.974Z,100565.38
2022-09-21T04:37:38.003Z,100559.41
2022-09-21T04:40:06.421Z,100559.41
2022-09-21T04:42:33.661Z,100565.59
2022-09-21T04:45:00.746Z,100575.97
2022-09-21T04:47:31.096Z,100568.72
2022-09-21T04:49:58.063Z,100579.13
2022-09-21T04:52:25.645Z,100576.09
2022-09-21T04:54:53.260Z,100574.34
2022-09-21T04:57:20.293Z,100578.09
2022-09-21T04:59:47.257Z,100575.41
2022-09-21T05:02:14.200Z,100580.38
2022-09-21T05:04:41.215Z,100577.97
2022-09-21T05:07:08.140Z,100579.38
2022-09-21T05:09:54.081Z,100579.13
2022-09-21T05:12:21.036Z,100592.81
2022-09-21T05:14:47.968Z,100594.25
2022-09-21T05:17:15.039Z,100591.94
2022-09-21T05:19:41.947Z,100598.38
2022-09-21T05:22:08.985Z,100601.91
2022-09-21T05:24:35.898Z,100605.34
2022-09-21T05:27:02.846Z,100600.19
2022-09-21T05:29:30.072Z,100601.88
2022-09-21T05:32:16.198Z,100612.56
2022-09-21T05:34:53.285Z,100609.22
2022-09-21T05:37:45.832Z,100616.41
2022-09-21T05:40:14.333Z,100611.75
2022-09-21T05:42:41.917Z,100621.31
2022-09-21T05:45:17.401Z,100627.66
2022-09-21T05:47:59.017Z,100623.28
2022-09-21T05:50:56.973Z,100629.44
2022-09-21T05:54:15.441Z,100628.25
2022-09-21T05:56:56.440Z,100631.41
2022-09-21T05:59:40.528Z,100633.19
2022-09-21T06:02:35.838Z,100633.75
2022-09-21T06:05:05.947Z,100640.38
2022-09-21T06:07:32.893Z,100638.91
2022-09-21T06:09:59.808Z,100638.50
2022-09-21T06:12:26.736Z,100642.00
2022-09-21T06:14:54.004Z,100645.81
2022-09-21T06:17:20.901Z,100634.06
2022-09-21T06:19:47.892Z,100641.78
2022-09-21T06:22:14.855Z,100642.06
2022-09-21T06:24:41.797Z,100651.13
2022-09-21T06:27:08.713Z,100647.28
2022-09-21T06:29:35.667Z,100661.53
2022-09-21T06:32:04.845Z,100648.50
2022-09-21T06:34:32.031Z,100654.22
2022-09-21T06:36:58.979Z,100652.53
2022-09-21T06:39:25.883Z,100655.06
2022-09-21T06:41:52.933Z,100656.47
2022-09-21T06:44:19.839Z,100658.88
2022-09-21T06:46:47.037Z,100658.00
2022-09-21T06:49:14.020Z,100656.97
2022-09-21T06:51:40.928Z,100665.41
2022-09-21T06:54:07.950Z,100667.22
2022-09-21T06:56:35.777Z,100674.41
2022-09-21T06:59:02.687Z,100664.84
2022-09-21T07:01:29.740Z,100673.91
2022-09-21T07:03:56.868Z,100673.03
2022-09-21T07:06:23.790Z,100671.59
2022-09-21T07:11:41.895Z,100678.16
2022-09-21T07:14:08.884Z,100679.25
2022-09-21T07:16:36.035Z,100680.41
2022-09-21T07:19:10.926Z,100688.75
2022-09-21T07:21:38.463Z,100684.56
2022-09-21T07:24:11.072Z,100678.81
2022-09-21T07:26:39.175Z,100686.88
2022-09-21T07:29:06.605Z,100686.22
2022-09-21T07:31:33.800Z,100684.06
2022-09-21T07:34:00.816Z,100678.78
2022-09-21T07:36:27.789Z,100689.34
2022-09-21T07:38:54.716Z,100688.91
2022-09-21T07:41:22.505Z,100693.03
2022-09-21T07:43:49.471Z,100692.31
2022-09-21T07:46:16.475Z,100691.81
2022-09-21T07:48:43.624Z,100694.50
2022-09-21T07:51:13.726Z,100686.28
2022-09-21T07:53:44.113Z,100692.00
2022-09-21T07:56:17.525Z,100691.31
2022-09-21T07:59:03.561Z,100700.75
2022-09-21T08:01:31.058Z,100700.56
2022-09-21T08:03:59.130Z,100698.25
2022-09-21T08:06:30.999Z,100706.38
2022-09-21T08:08:58.343Z,100699.56
2022-09-21T08:11:27.740Z,100711.31
2022-09-21T08:14:02.585Z,100711.03
2022-09-21T08:16:31.643Z,100696.41
2022-09-21T08:18:58.674Z,100710.19
2022-09-21T08:21:25.643Z,100707.19
2022-09-21T08:23:52.598Z,100715.84
2022-09-21T08:26:20.682Z,100709.84
2022-09-21T08:28:51.549Z,100718.69
2022-09-21T08:31:22.190Z,100722.44
2022-09-21T08:33:50.201Z,100721.38
2022-09-21T08:36:18.766Z,100722.81
2022-09-21T08:38:46.314Z,100716.06
2022-09-21T08:41:28.248Z,100723.06
2022-09-21T08:44:11.860Z,100717.31
2022-09-21T08:46:40.281Z,100728.56
2022-09-21T08:49:16.476Z,100731.22
2022-09-21T08:52:15.289Z,100735.50
2022-09-21T08:55:19.158Z,100733.78
2022-09-21T08:57:46.158Z,100726.31
2022-09-21T09:00:19.276Z,100707.13
2022-09-21T09:03:05.289Z,100726.72
2022-09-21T09:06:04.130Z,100726.03
2022-09-21T09:09:08.561Z,100722.56
2022-09-21T09:12:06.344Z,100728.06
2022-09-21T09:14:56.198Z,100734.63
2022-09-21T09:17:43.011Z,100732.03
2022-09-21T09:20:39.812Z,100730.06
2022-09-21T09:23:43.448Z,100728.72
2022-09-21T09:26:20.644Z,100730.41
2022-09-21T09:29:01.635Z,100735.22
2022-09-21T09:31:37.146Z,100729.94
2022-09-21T09:34:14.572Z,100734.78
2022-09-21T09:36:58.827Z,100741.91
2022-09-21T09:39:29.421Z,100733.50
2022-09-21T09:42:15.135Z,100734.25
2022-09-21T09:45:26.246Z,100727.94
2022-09-21T09:48:17.612Z,100727.34
2022-09-21T09:50:45.028Z,100723.97
2022-09-21T09:53:26.665Z,100728.91
2022-09-21T09:55:58.432Z,100710.91
2022-09-21T09:58:50.868Z,100725.13
2022-09-21T10:01:43.199Z,100725.66
2022-09-21T10:04:14.868Z,100719.41
2022-09-21T10:06:46.345Z,100719.09
2022-09-21T10:09:31.361Z,100716.53
2022-09-21T10:12:27.462Z,100723.44
2022-09-21T10:15:00.120Z,100723.00
2022-09-21T10:17:27.788Z,100709.50
2022-09-21T10:20:06.470Z,100706.72
2022-09-21T10:22:33.481Z,100699.69
2022-09-21T10:25:05.208Z,100691.66
2022-09-21T10:27:37.485Z,100709.53
2022-09-21T10:30:05.040Z,100706.66
2022-09-21T10:32:32.135Z,100695.97
2022-09-21T10:35:07.887Z,100703.88
2022-09-21T10:37:53.658Z,100706.50
2022-09-21T10:40:20.573Z,100704.00
2022-09-21T10:42:53.971Z,100702.34
2022-09-21T10:45:25.680Z,100697.91
2022-09-21T10:48:15.436Z,100701.56
2022-09-21T10:50:46.433Z,100699.75
2022-09-21T10:53:34.677Z,100697.09
2022-09-21T10:56:18.882Z,100693.41
2022-09-21T10:59:10.359Z,100704.09
2022-09-21T11:01:42.802Z,100698.84
2022-09-21T11:04:28.116Z,100704.25
2022-09-21T11:07:07.867Z,100697.88
2022-09-21T11:09:47.363Z,100687.16
2022-09-21T11:12:33.126Z,100697.91
2022-09-21T11:15:11.648Z,100682.81
2022-09-21T11:18:21.724Z,100690.72
2022-09-21T11:20:59.721Z,100699.50
2022-09-21T11:24:10.611Z,100693.03
2022-09-21T11:26:54.666Z,100703.56
2022-09-21T11:30:01.803Z,100696.44
2022-09-21T11:33:00.821Z,100696.69
2022-09-21T11:36:01.364Z,100697.38
2022-09-21T11:39:01.248Z,100692.91
2022-09-21T11:41:44.802Z,100680.31
2022-09-21T11:44:31.371Z,100684.94
2022-09-21T11:47:04.306Z,100679.63
2022-09-21T11:50:26.527Z,100679.63
2022-09-21T11:53:22.677Z,100675.25
2022-09-21T11:56:11.781Z,100676.06
2022-09-21T11:58:57.794Z,100677.75
2022-09-21T12:01:46.471Z,100684.19
2022-09-21T12:04:43.526Z,100683.38
2022-09-21T12:07:36.436Z,100663.69
2022-09-21T12:10:18.738Z,100671.69
2022-09-21T12:13:23.754Z,100669.94
2022-09-21T12:16:03.327Z,100665.47
2022-09-21T12:19:10.931Z,100663.69
2022-09-21T12:21:45.850Z,100661.09
2022-09-21T12:24:31.216Z,100658.56
2022-09-21T12:27:08.681Z,100653.13
2022-09-21T12:29:47.302Z,100654.91
2022-09-21T12:32:55.828Z,100666.63
2022-09-21T12:35:47.870Z,100659.38
2022-09-21T12:38:36.543Z,100652.28
2022-09-21T12:41:47.460Z,100639.84
2022-09-21T12:44:52.379Z,100661.25
2022-09-21T12:47:42.247Z,100648.81
2022-09-21T12:50:32.099Z,100655.97
2022-09-21T12:52:59.873Z,100654.06
2022-09-21T12:55:34.081Z,100653.22
2022-09-21T12:58:25.360Z,100656.75
2022-09-21T13:01:29.229Z,100669.22
2022-09-21T13:04:36.141Z,100670.75
2022-09-21T13:07:55.833Z,100675.09
2022-09-21T13:10:28.870Z,100679.47
2022-09-21T13:13:02.150Z,100676.50
2022-09-21T13:15:42.252Z,100674.31
2022-09-21T13:18:33.763Z,100672.00
2022-09-21T13:21:26.595Z,100676.41
2022-09-21T13:24:01.735Z,100672.00
2022-09-21T13:26:51.276Z,100665.53
2022-09-21T13:29:19.029Z,100666.53
2022-09-21T13:32:20.428Z,100670.91
2022-09-21T13:34:50.973Z,100667.31
2022-09-21T13:37:20.960Z,100668.38
2022-09-21T13:40:05.329Z,100667.56
2022-09-21T13:42:35.050Z,100667.44
2022-09-21T13:45:24.050Z,100671.03
2022-09-21T13:48:01.037Z,100674.84
2022-09-21T13:50:43.291Z,100665.69
2022-09-21T13:53:25.289Z,100668.44
2022-09-21T13:55:59.906Z,100659.50
2022-09-21T13:58:44.055Z,100664.84
2022-09-21T14:01:48.309Z,100655.16
2022-09-21T14:04:37.190Z,100650.56
2022-09-21T14:07:07.913Z,100659.25
2022-09-21T14:09:57.825Z,100641.44
2022-09-21T14:12:27.487Z,100659.38
2022-09-21T14:15:16.337Z,100652.41
2022-09-21T14:17:44.146Z,100655.09
2022-09-21T14:20:35.801Z,100655.81
2022-09-21T14:23:24.145Z,100656.84
2022-09-21T14:26:01.950Z,100652.25
2022-09-21T14:28:34.886Z,100655.72
2022-09-21T14:31:10.315Z,100652.13
2022-09-21T14:33:55.043Z,100645.97
2022-09-21T14:36:47.145Z,100651.56
2022-09-21T14:39:26.102Z,100653.91
2022-09-21T14:41:58.229Z,100653.59
2022-09-21T14:44:30.613Z,100651.78
2022-09-21T14:47:28.837Z,100646.31
2022-09-21T14:50:24.207Z,100650.84
2022-09-21T14:53:29.131Z,100649.88
2022-09-21T14:56:29.941Z,100650.00
2022-09-21T14:59:23.450Z,100652.66
2022-09-21T15:02:02.435Z,100649.25
2022-09-21T15:05:15.759Z,100656.03
2022-09-21T15:08:42.385Z,100657.84
2022-09-21T15:11:32.201Z,100653.09
2022-09-21T15:14:30.213Z,100662.53
2022-09-21T15:16:57.249Z,100665.16
2022-09-21T15:19:29.697Z,100659.72
2022-09-21T15:22:11.829Z,100664.09
2022-09-21T15:24:53.988Z,100673.91
2022-09-21T15:27:25.231Z,100673.72
2022-09-21T15:29:56.456Z,100675.38
2022-09-21T15:32:43.698Z,100677.25
2022-09-21T15:35:22.030Z,100684.00
2022-09-21T15:37:51.229Z,100684.81
2022-09-21T15:40:28.396Z,100691.13
2022-09-21T15:43:01.128Z,100693.38
2022-09-21T15:45:37.296Z,100696.91
2022-09-21T15:48:12.834Z,100697.53
2022-09-21T15:50:43.155Z,100704.19
2022-09-21T15:53:22.541Z,100707.63
2022-09-21T15:55:50.509Z,100705.72
2022-09-21T15:58:35.824Z,100706.97
2022-09-21T16:01:12.250Z,100711.22
2022-09-21T16:03:40.189Z,100715.41
2022-09-21T16:06:35.611Z,100710.00
2022-09-21T16:09:26.032Z,100707.63
2022-09-21T16:11:55.961Z,100709.28
2022-09-21T16:14:41.881Z,100716.31
2022-09-21T16:17:20.348Z,100712.75
2022-09-21T16:19:56.718Z,100709.19
2022-09-21T16:22:41.139Z,100714.19
2022-09-21T16:25:37.185Z,100709.63
2022-09-21T16:28:19.162Z,100718.47
2022-09-21T16:30:48.949Z,100720.25
2022-09-21T16:33:49.896Z,100721.94
2022-09-21T16:36:20.154Z,100721.84
2022-09-21T16:38:47.270Z,100731.34
2022-09-21T16:41:14.830Z,100721.34
2022-09-21T16:43:43.782Z,100732.69
2022-09-21T16:46:13.017Z,100726.41
2022-09-21T16:48:40.655Z,100739.69
2022-09-21T16:51:22.356Z,100727.28
2022-09-21T16:53:49.307Z,100730.41
2022-09-21T16:56:17.224Z,100734.91
2022-09-21T16:58:45.208Z,100732.09
2022-09-21T17:01:18.742Z,100730.28
2022-09-21T17:03:47.466Z,100733.81
2022-09-21T17:06:18.528Z,100738.69
2022-09-21T17:08:51.346Z,100737.53
2022-09-21T17:11:20.268Z,100732.81
2022-09-21T17:13:51.220Z,100738.53
2022-09-21T17:16:20.158Z,100740.13
2022-09-21T17:18:49.105Z,100735.72
2022-09-21T17:21:16.835Z,100750.53
2022-09-21T17:23:43.872Z,100759.81
2022-09-21T17:26:21.077Z,100751.97
2022-09-21T17:28:48.096Z,100756.16
2022-09-21T17:31:17.149Z,100757.22
2022-09-21T17:33:46.499Z,100753.69
2022-09-21T17:36:14.903Z,100765.97
2022-09-21T17:38:44.982Z,100768.03
2022-09-21T17:41:40.167Z,100768.28
2022-09-21T17:45:08.107Z,100765.25
2022-09-21T17:47:35.731Z,100776.09
2022-09-21T17:50:27.342Z,100775.84
2022-09-21T17:53:14.908Z,100772.19
2022-09-21T17:55:54.681Z,100769.72
2022-09-21T17:58:36.510Z,100775.59
2022-09-21T18:01:27.520Z,100778.13
2022-09-21T18:03:54.959Z,100774.75
2022-09-21T18:06:22.926Z,100780.88
2022-09-21T18:08:50.705Z,100777.41
2022-09-21T18:12:11.963Z,100774.09
2022-09-21T18:15:05.295Z,100767.28
2022-09-21T18:18:03.662Z,100773.16
2022-09-21T18:21:03.800Z,100774.25
2022-09-21T18:24:07.890Z,100778.41
2022-09-21T18:26:35.355Z,100781.19
2022-09-21T18:29:22.559Z,100781.94
2022-09-21T18:32:18.135Z,100779.44
2022-09-21T18:35:01.861Z,100782.84
2022-09-21T18:37:59.535Z,100791.53
2022-09-21T18:40:44.397Z,100788.84
2022-09-21T18:43:42.185Z,100785.41
2022-09-21T18:46:24.789Z,100793.94
2022-09-21T18:49:06.007Z,100790.28
2022-09-21T18:51:51.687Z,100795.44
2022-09-21T18:54:22.669Z,100789.44
2022-09-21T18:56:50.219Z,100780.38
2022-09-21T18:59:17.898Z,100783.69
2022-09-21T19:01:47.213Z,100788.19
2022-09-21T19:04:17.127Z,100782.16
2022-09-21T19:07:17.956Z,100782.16
2022-09-21T19:09:59.783Z,100785.53
2022-09-21T19:12:44.197Z,100779.19
2022-09-21T19:16:00.834Z,100776.28
2022-09-21T19:18:39.870Z,100785.34
2022-09-21T19:21:33.181Z,100785.38
2022-09-21T19:24:23.145Z,100791.84
2022-09-21T19:27:23.200Z,100789.75
2022-09-21T19:30:14.547Z,100789.06
2022-09-21T19:32:58.409Z,100779.97
2022-09-21T19:35:29.144Z,100781.66
2022-09-21T19:38:02.259Z,100784.38
2022-09-21T19:40:33.400Z,100780.19
2022-09-21T19:43:50.907Z,100777.03
2022-09-21T19:46:54.509Z,100785.63
2022-09-21T19:49:24.325Z,100782.28
2022-09-21T19:51:55.919Z,100783.88
2022-09-21T19:54:43.817Z,100778.56
2022-09-21T19:57:35.835Z,100778.47
2022-09-21T20:00:06.397Z,100787.75
2022-09-21T20:03:17.609Z,100784.63
2022-09-21T20:06:22.850Z,100782.03
2022-09-21T20:09:18.067Z,100776.50
2022-09-21T20:11:52.112Z,100783.22
2022-09-21T20:14:30.857Z,100777.84
2022-09-21T20:17:00.996Z,100784.06
2022-09-21T20:20:08.082Z,100796.91
2022-09-21T20:22:40.631Z,100795.75
2022-09-21T20:25:31.168Z,100788.88
2022-09-21T20:27:59.525Z,100785.75
2022-09-21T20:30:33.262Z,100785.69
2022-09-21T20:33:14.714Z,100786.38
2022-09-21T20:35:42.994Z,100784.97
2022-09-21T20:38:12.768Z,100792.66
2022-09-21T20:40:41.847Z,100793.69
2022-09-21T20:43:14.188Z,100794.06
2022-09-21T20:45:46.340Z,100788.00
2022-09-21T20:48:13.571Z,100790.78
2022-09-21T20:50:49.405Z,100792.13
2022-09-21T20:53:17.585Z,100786.88
2022-09-21T20:55:55.102Z,100786.84
2022-09-21T20:58:22.309Z,100787.34
2022-09-21T21:00:50.517Z,100789.94
2022-09-21T21:03:19.213Z,100789.81
2022-09-21T21:05:46.150Z,100782.66
2022-09-21T21:08:13.240Z,100785.16
2022-09-21T21:10:46.658Z,100781.06
2022-09-21T21:13:13.678Z,100789.44
2022-09-21T21:15:40.662Z,100785.00
2022-09-21T21:18:12.486Z,100784.00
2022-09-21T21:20:41.124Z,100781.16
2022-09-21T21:23:08.435Z,100786.81
2022-09-21T21:25:36.404Z,100779.09
2022-09-21T21:28:04.432Z,100785.31
2022-09-21T21:30:31.801Z,100779.94
2022-09-21T21:32:59.433Z,100778.06
2022-09-21T21:35:30.213Z,100773.41
2022-09-21T21:37:59.039Z,100776.78
2022-09-21T21:40:26.199Z,100779.28
2022-09-21T21:42:56.226Z,100780.91
2022-09-21T21:45:23.692Z,100780.69
2022-09-21T21:47:51.070Z,100788.44
2022-09-21T21:50:18.089Z,100788.44
2022-09-21T21:52:45.301Z,100784.88
2022-09-21T21:55:12.646Z,100793.34
2022-09-21T21:57:40.101Z,100789.56
2022-09-21T22:00:09.019Z,100789.28
2022-09-21T22:02:35.976Z,100791.38
2022-09-21T22:05:03.045Z,100781.00
2022-09-21T22:07:29.967Z,100783.16
2022-09-21T22:09:56.873Z,100784.84
2022-09-21T22:12:24.944Z,100783.91
2022-09-21T22:14:51.941Z,100785.66
2022-09-21T22:17:19.333Z,100784.34
2022-09-21T22:19:46.887Z,100782.56
2022-09-21T22:22:13.829Z,100788.31
2022-09-21T22:24:40.723Z,100783.78
2022-09-21T22:27:07.673Z,100780.78
2022-09-21T22:29:35.434Z,100778.22
2022-09-21T22:32:02.784Z,100786.06
2022-09-21T22:34:30.675Z,100787.91
2022-09-21T22:36:59.221Z,100792.16
2022-09-21T22:39:26.200Z,100788.88
2022-09-21T22:41:53.170Z,100790.00
2022-09-21T22:44:20.154Z,100785.97
2022-09-21T22:46:47.044Z,100788.63
2022-09-21T22:49:14.001Z,100792.03
2022-09-21T22:51:41.022Z,100796.31
2022-09-21T22:54:08.052Z,100784.75
2022-09-21T22:56:35.339Z,100788.19
2022-09-21T22:59:05.605Z,100780.91
2022-09-21T23:01:39.378Z,100791.06
2022-09-21T23:04:10.943Z,100787.13
2022-09-21T23:06:41.910Z,100788.06
2022-09-21T23:09:14.767Z,100789.69
2022-09-21T23:11:47.626Z,100789.44
2022-09-21T23:14:16.472Z,100785.38
2022-09-21T23:16:43.767Z,100787.63
2022-09-21T23:19:15.995Z,100787.59
2022-09-21T23:21:50.038Z,100791.75
2022-09-21T23:24:17.756Z,100780.88
2022-09-21T23:26:45.634Z,100781.81
2022-09-21T23:29:15.223Z,100777.66
2022-09-21T23:31:45.489Z,100782.31
2022-09-21T23:34:14.173Z,100782.22
2022-09-21T23:36:42.489Z,100786.28
2022-09-21T23:39:13.168Z,100784.66
2022-09-21T23:41:40.525Z,100785.63
2022-09-21T23:44:07.847Z,100783.50
2022-09-21T23:46:37.398Z,100787.72
2022-09-21T23:49:04.908Z,100778.34
2022-09-21T23:51:32.306Z,100783.50
2022-09-21T23:53:59.853Z,100783.13
2022-09-21T23:56:28.456Z,100778.31
2022-09-21T23:58:56.125Z,100782.28
